sensor_id;sensor_type;location;lat;lon;timestamp;P1;durP1;ratioP1;P2;durP2;ratioP2
45322;SDS011;31382;50.200;8.674;2023-02-01T00:02:33;5.50;;;3.05;;
45322;SDS011;31382;50.200;8.674;2023-02-01T00:07:36;5.82;;;2.17;;
45322;SDS011;31382;50.200;8.674;2023-02-01T00:12:38;4.85;;;2.70;;
45322;SDS011;31382;50.200;8.674;2023-02-01T00:17:39;4.70;;;2.38;;
45322;SDS011;31382;50.200;8.674;2023-02-01T00:22:41;5.85;;;2.20;;
45322;SDS011;31382;50.200;8.674;2023-02-01T00:27:42;7.22;;;3.63;;
45322;SDS011;31382;50.200;8.674;2023-02-01T00:32:43;4.47;;;2.88;;
45322;SDS011;31382;50.200;8.674;2023-02-01T00:37:45;9.50;;;3.28;;
45322;SDS011;31382;50.200;8.674;2023-02-01T00:42:46;4.88;;;3.05;;
45322;SDS011;31382;50.200;8.674;2023-02-01T00:47:48;5.82;;;3.30;;
45322;SDS011;31382;50.200;8.674;2023-02-01T00:52:49;6.65;;;3.05;;
45322;SDS011;31382;50.200;8.674;2023-02-01T00:57:50;4.70;;;3.10;;
45322;SDS011;31382;50.200;8.674;2023-02-01T01:02:52;6.38;;;3.35;;
45322;SDS011;31382;50.200;8.674;2023-02-01T01:07:53;7.28;;;2.95;;
45322;SDS011;31382;50.200;8.674;2023-02-01T01:12:55;5.18;;;2.67;;
45322;SDS011;31382;50.200;8.674;2023-02-01T01:17:56;3.10;;;2.50;;
45322;SDS011;31382;50.200;8.674;2023-02-01T01:22:57;5.93;;;3.05;;
45322;SDS011;31382;50.200;8.674;2023-02-01T01:27:58;5.03;;;3.00;;
45322;SDS011;31382;50.200;8.674;2023-02-01T01:33:00;4.63;;;3.08;;
45322;SDS011;31382;50.200;8.674;2023-02-01T01:38:02;7.60;;;3.97;;
45322;SDS011;31382;50.200;8.674;2023-02-01T01:43:08;6.30;;;2.97;;
45322;SDS011;31382;50.200;8.674;2023-02-01T01:53:20;6.35;;;3.33;;
45322;SDS011;31382;50.200;8.674;2023-02-01T01:58:28;14.35;;;5.40;;
45322;SDS011;31382;50.200;8.674;2023-02-01T02:03:35;9.40;;;4.18;;
45322;SDS011;31382;50.200;8.674;2023-02-01T02:08:41;5.78;;;3.67;;
45322;SDS011;31382;50.200;8.674;2023-02-01T02:13:44;9.32;;;3.95;;
45322;SDS011;31382;50.200;8.674;2023-02-01T02:35:37;9.57;;;5.05;;
45322;SDS011;31382;50.200;8.674;2023-02-01T02:40:49;8.82;;;5.38;;
45322;SDS011;31382;50.200;8.674;2023-02-01T02:46:07;8.13;;;5.53;;
45322;SDS011;31382;50.200;8.674;2023-02-01T02:51:45;7.68;;;4.43;;
45322;SDS011;31382;50.200;8.674;2023-02-01T02:57:30;7.82;;;4.32;;
45322;SDS011;31382;50.200;8.674;2023-02-01T03:02:54;12.18;;;4.68;;
45322;SDS011;31382;50.200;8.674;2023-02-01T03:08:15;10.85;;;4.43;;
45322;SDS011;31382;50.200;8.674;2023-02-01T03:13:24;10.57;;;5.50;;
45322;SDS011;31382;50.200;8.674;2023-02-01T03:23:36;7.43;;;5.05;;
45322;SDS011;31382;50.200;8.674;2023-02-01T03:28:39;12.65;;;5.80;;
45322;SDS011;31382;50.200;8.674;2023-02-01T03:33:49;9.32;;;5.72;;
45322;SDS011;31382;50.200;8.674;2023-02-01T03:38:55;7.57;;;4.90;;
45322;SDS011;31382;50.200;8.674;2023-02-01T03:44:07;10.65;;;5.00;;
45322;SDS011;31382;50.200;8.674;2023-02-01T03:49:20;10.25;;;4.35;;
45322;SDS011;31382;50.200;8.674;2023-02-01T03:54:27;10.70;;;5.05;;
45322;SDS011;31382;50.200;8.674;2023-02-01T03:59:30;8.07;;;3.60;;
45322;SDS011;31382;50.200;8.674;2023-02-01T04:04:31;9.48;;;4.15;;
45322;SDS011;31382;50.200;8.674;2023-02-01T04:09:34;8.05;;;3.47;;
45322;SDS011;31382;50.200;8.674;2023-02-01T04:14:35;6.90;;;2.95;;
45322;SDS011;31382;50.200;8.674;2023-02-01T04:19:36;8.77;;;4.47;;
45322;SDS011;31382;50.200;8.674;2023-02-01T04:24:38;7.75;;;4.07;;
45322;SDS011;31382;50.200;8.674;2023-02-01T04:29:39;11.75;;;4.20;;
45322;SDS011;31382;50.200;8.674;2023-02-01T04:34:42;9.20;;;4.20;;
45322;SDS011;31382;50.200;8.674;2023-02-01T04:39:43;11.43;;;4.90;;
45322;SDS011;31382;50.200;8.674;2023-02-01T04:44:45;11.45;;;5.38;;
45322;SDS011;31382;50.200;8.674;2023-02-01T04:49:46;10.88;;;4.53;;
45322;SDS011;31382;50.200;8.674;2023-02-01T04:54:47;10.60;;;4.32;;
45322;SDS011;31382;50.200;8.674;2023-02-01T04:59:49;9.25;;;4.07;;
45322;SDS011;31382;50.200;8.674;2023-02-01T05:04:50;9.05;;;3.92;;
45322;SDS011;31382;50.200;8.674;2023-02-01T05:09:52;8.52;;;4.32;;
45322;SDS011;31382;50.200;8.674;2023-02-01T05:14:53;9.73;;;4.25;;
45322;SDS011;31382;50.200;8.674;2023-02-01T05:19:54;8.48;;;3.60;;
45322;SDS011;31382;50.200;8.674;2023-02-01T05:24:56;9.25;;;4.20;;
45322;SDS011;31382;50.200;8.674;2023-02-01T05:29:57;10.10;;;4.00;;
45322;SDS011;31382;50.200;8.674;2023-02-01T05:34:59;6.60;;;3.28;;
45322;SDS011;31382;50.200;8.674;2023-02-01T05:40:00;11.93;;;3.95;;
45322;SDS011;31382;50.200;8.674;2023-02-01T05:45:01;8.18;;;3.58;;
45322;SDS011;31382;50.200;8.674;2023-02-01T05:50:03;9.75;;;3.53;;
45322;SDS011;31382;50.200;8.674;2023-02-01T05:55:06;7.28;;;3.30;;
45322;SDS011;31382;50.200;8.674;2023-02-01T06:00:08;5.38;;;2.90;;
45322;SDS011;31382;50.200;8.674;2023-02-01T06:05:10;5.75;;;2.60;;
45322;SDS011;31382;50.200;8.674;2023-02-01T06:10:12;13.35;;;2.83;;
45322;SDS011;31382;50.200;8.674;2023-02-01T06:15:14;8.85;;;2.63;;
45322;SDS011;31382;50.200;8.674;2023-02-01T06:20:19;15.27;;;3.67;;
45322;SDS011;31382;50.200;8.674;2023-02-01T06:25:21;12.07;;;2.00;;
45322;SDS011;31382;50.200;8.674;2023-02-01T06:30:22;8.73;;;2.72;;
45322;SDS011;31382;50.200;8.674;2023-02-01T06:35:24;7.78;;;1.88;;
45322;SDS011;31382;50.200;8.674;2023-02-01T06:40:27;10.55;;;2.30;;
45322;SDS011;31382;50.200;8.674;2023-02-01T06:45:28;11.05;;;1.58;;
45322;SDS011;31382;50.200;8.674;2023-02-01T06:50:30;7.88;;;1.70;;
45322;SDS011;31382;50.200;8.674;2023-02-01T06:55:31;7.93;;;1.83;;
45322;SDS011;31382;50.200;8.674;2023-02-01T07:00:32;8.30;;;1.50;;
45322;SDS011;31382;50.200;8.674;2023-02-01T07:05:34;16.90;;;3.00;;
45322;SDS011;31382;50.200;8.674;2023-02-01T07:10:36;13.25;;;2.30;;
45322;SDS011;31382;50.200;8.674;2023-02-01T07:15:38;11.95;;;2.33;;
45322;SDS011;31382;50.200;8.674;2023-02-01T07:20:39;13.80;;;2.03;;
45322;SDS011;31382;50.200;8.674;2023-02-01T07:25:41;8.68;;;1.52;;
45322;SDS011;31382;50.200;8.674;2023-02-01T07:30:43;13.48;;;1.95;;
45322;SDS011;31382;50.200;8.674;2023-02-01T07:35:44;9.65;;;2.05;;
45322;SDS011;31382;50.200;8.674;2023-02-01T07:40:46;8.57;;;1.58;;
45322;SDS011;31382;50.200;8.674;2023-02-01T07:45:51;13.68;;;2.47;;
45322;SDS011;31382;50.200;8.674;2023-02-01T07:51:01;9.75;;;1.27;;
45322;SDS011;31382;50.200;8.674;2023-02-01T07:56:09;10.07;;;1.70;;
45322;SDS011;31382;50.200;8.674;2023-02-01T08:01:16;11.60;;;1.63;;
45322;SDS011;31382;50.200;8.674;2023-02-01T08:06:22;13.38;;;1.50;;
45322;SDS011;31382;50.200;8.674;2023-02-01T08:11:25;10.23;;;1.00;;
45322;SDS011;31382;50.200;8.674;2023-02-01T08:16:26;7.53;;;1.83;;
45322;SDS011;31382;50.200;8.674;2023-02-01T08:21:28;6.78;;;1.98;;
45322;SDS011;31382;50.200;8.674;2023-02-01T08:26:49;11.60;;;1.30;;
45322;SDS011;31382;50.200;8.674;2023-02-01T08:31:51;10.10;;;0.93;;
45322;SDS011;31382;50.200;8.674;2023-02-01T08:36:52;10.70;;;1.50;;
45322;SDS011;31382;50.200;8.674;2023-02-01T08:41:58;12.70;;;1.42;;
45322;SDS011;31382;50.200;8.674;2023-02-01T08:47:18;6.38;;;1.27;;
45322;SDS011;31382;50.200;8.674;2023-02-01T08:52:19;6.28;;;0.80;;
45322;SDS011;31382;50.200;8.674;2023-02-01T08:57:21;6.18;;;1.17;;
45322;SDS011;31382;50.200;8.674;2023-02-01T09:02:23;9.02;;;0.80;;
45322;SDS011;31382;50.200;8.674;2023-02-01T09:07:24;8.38;;;1.05;;
45322;SDS011;31382;50.200;8.674;2023-02-01T09:12:26;8.25;;;1.58;;
45322;SDS011;31382;50.200;8.674;2023-02-01T09:17:29;3.25;;;1.30;;
45322;SDS011;31382;50.200;8.674;2023-02-01T09:22:31;10.73;;;2.67;;
45322;SDS011;31382;50.200;8.674;2023-02-01T09:27:32;10.63;;;1.30;;
45322;SDS011;31382;50.200;8.674;2023-02-01T09:32:35;8.35;;;0.98;;
45322;SDS011;31382;50.200;8.674;2023-02-01T09:37:36;11.57;;;1.60;;
45322;SDS011;31382;50.200;8.674;2023-02-01T09:43:00;9.70;;;1.05;;
45322;SDS011;31382;50.200;8.674;2023-02-01T09:48:17;13.87;;;1.60;;
45322;SDS011;31382;50.200;8.674;2023-02-01T09:53:25;11.50;;;1.87;;
45322;SDS011;31382;50.200;8.674;2023-02-01T09:58:38;11.80;;;2.13;;
45322;SDS011;31382;50.200;8.674;2023-02-01T10:03:43;18.95;;;2.10;;
45322;SDS011;31382;50.200;8.674;2023-02-01T10:14:03;12.60;;;2.15;;
45322;SDS011;31382;50.200;8.674;2023-02-01T10:24:40;7.53;;;1.15;;
45322;SDS011;31382;50.200;8.674;2023-02-01T10:29:44;8.88;;;1.40;;
45322;SDS011;31382;50.200;8.674;2023-02-01T10:34:52;7.18;;;0.60;;
45322;SDS011;31382;50.200;8.674;2023-02-01T10:40:00;9.70;;;1.58;;
45322;SDS011;31382;50.200;8.674;2023-02-01T10:45:17;7.63;;;0.93;;
45322;SDS011;31382;50.200;8.674;2023-02-01T10:50:29;5.70;;;0.90;;
45322;SDS011;31382;50.200;8.674;2023-02-01T10:55:43;9.13;;;1.02;;
45322;SDS011;31382;50.200;8.674;2023-02-01T11:00:55;5.95;;;1.20;;
45322;SDS011;31382;50.200;8.674;2023-02-01T11:05:59;7.75;;;1.20;;
45322;SDS011;31382;50.200;8.674;2023-02-01T11:11:02;7.78;;;1.42;;
45322;SDS011;31382;50.200;8.674;2023-02-01T11:16:09;6.47;;;0.90;;
45322;SDS011;31382;50.200;8.674;2023-02-01T11:21:13;8.10;;;2.53;;
45322;SDS011;31382;50.200;8.674;2023-02-01T11:26:20;7.50;;;1.10;;
45322;SDS011;31382;50.200;8.674;2023-02-01T11:31:25;11.60;;;1.02;;
45322;SDS011;31382;50.200;8.674;2023-02-01T11:36:30;11.57;;;1.23;;
45322;SDS011;31382;50.200;8.674;2023-02-01T11:41:34;15.40;;;1.45;;
45322;SDS011;31382;50.200;8.674;2023-02-01T11:46:44;7.05;;;0.98;;
45322;SDS011;31382;50.200;8.674;2023-02-01T11:51:50;9.27;;;1.10;;
45322;SDS011;31382;50.200;8.674;2023-02-01T11:57:26;8.88;;;1.30;;
45322;SDS011;31382;50.200;8.674;2023-02-01T12:03:02;7.07;;;1.20;;
45322;SDS011;31382;50.200;8.674;2023-02-01T12:08:36;5.90;;;0.75;;
45322;SDS011;31382;50.200;8.674;2023-02-01T12:25:06;7.43;;;0.68;;
45322;SDS011;31382;50.200;8.674;2023-02-01T12:46:49;14.55;;;2.67;;
45322;SDS011;31382;50.200;8.674;2023-02-01T12:51:57;10.55;;;1.17;;
45322;SDS011;31382;50.200;8.674;2023-02-01T12:57:12;3.70;;;0.47;;
45322;SDS011;31382;50.200;8.674;2023-02-01T13:07:30;6.63;;;1.02;;
45322;SDS011;31382;50.200;8.674;2023-02-01T13:12:43;12.73;;;1.63;;
45322;SDS011;31382;50.200;8.674;2023-02-01T13:17:51;6.05;;;0.60;;
45322;SDS011;31382;50.200;8.674;2023-02-01T13:22:57;3.22;;;0.80;;
45322;SDS011;31382;50.200;8.674;2023-02-01T13:28:18;9.85;;;0.90;;
45322;SDS011;31382;50.200;8.674;2023-02-01T13:44:39;5.25;;;0.43;;
45322;SDS011;31382;50.200;8.674;2023-02-01T13:49:52;7.90;;;0.73;;
45322;SDS011;31382;50.200;8.674;2023-02-01T13:55:15;8.85;;;0.70;;
45322;SDS011;31382;50.200;8.674;2023-02-01T14:00:33;5.90;;;0.50;;
45322;SDS011;31382;50.200;8.674;2023-02-01T14:26:40;8.18;;;0.98;;
45322;SDS011;31382;50.200;8.674;2023-02-01T14:42:23;3.88;;;0.45;;
45322;SDS011;31382;50.200;8.674;2023-02-01T14:47:28;5.05;;;0.85;;
45322;SDS011;31382;50.200;8.674;2023-02-01T14:52:32;5.05;;;0.77;;
45322;SDS011;31382;50.200;8.674;2023-02-01T14:57:47;6.85;;;0.50;;
45322;SDS011;31382;50.200;8.674;2023-02-01T15:02:52;4.15;;;0.50;;
45322;SDS011;31382;50.200;8.674;2023-02-01T15:07:54;3.97;;;0.63;;
45322;SDS011;31382;50.200;8.674;2023-02-01T15:12:59;9.43;;;1.65;;
45322;SDS011;31382;50.200;8.674;2023-02-01T15:18:01;7.32;;;0.88;;
45322;SDS011;31382;50.200;8.674;2023-02-01T15:23:03;6.82;;;0.82;;
45322;SDS011;31382;50.200;8.674;2023-02-01T15:28:10;3.80;;;0.32;;
45322;SDS011;31382;50.200;8.674;2023-02-01T15:33:16;4.93;;;0.68;;
45322;SDS011;31382;50.200;8.674;2023-02-01T15:38:20;4.20;;;0.93;;
45322;SDS011;31382;50.200;8.674;2023-02-01T15:43:24;5.93;;;0.40;;
45322;SDS011;31382;50.200;8.674;2023-02-01T15:48:31;4.78;;;0.50;;
45322;SDS011;31382;50.200;8.674;2023-02-01T15:53:37;6.50;;;1.00;;
45322;SDS011;31382;50.200;8.674;2023-02-01T15:58:40;8.45;;;1.17;;
45322;SDS011;31382;50.200;8.674;2023-02-01T16:03:44;10.75;;;0.68;;
45322;SDS011;31382;50.200;8.674;2023-02-01T16:08:52;9.80;;;0.57;;
45322;SDS011;31382;50.200;8.674;2023-02-01T16:13:56;9.65;;;0.68;;
45322;SDS011;31382;50.200;8.674;2023-02-01T16:19:01;2.97;;;0.60;;
45322;SDS011;31382;50.200;8.674;2023-02-01T16:24:03;6.88;;;1.15;;
45322;SDS011;31382;50.200;8.674;2023-02-01T16:29:06;3.60;;;0.50;;
45322;SDS011;31382;50.200;8.674;2023-02-01T16:34:10;4.10;;;0.50;;
45322;SDS011;31382;50.200;8.674;2023-02-01T16:39:16;4.78;;;0.50;;
45322;SDS011;31382;50.200;8.674;2023-02-01T16:44:18;5.72;;;0.88;;
45322;SDS011;31382;50.200;8.674;2023-02-01T16:49:20;11.82;;;1.63;;
45322;SDS011;31382;50.200;8.674;2023-02-01T16:54:24;11.60;;;0.98;;
45322;SDS011;31382;50.200;8.674;2023-02-01T16:59:25;4.88;;;0.40;;
45322;SDS011;31382;50.200;8.674;2023-02-01T17:04:27;2.22;;;0.30;;
45322;SDS011;31382;50.200;8.674;2023-02-01T17:09:28;4.40;;;0.63;;
45322;SDS011;31382;50.200;8.674;2023-02-01T17:14:38;2.88;;;0.75;;
45322;SDS011;31382;50.200;8.674;2023-02-01T17:19:41;9.05;;;0.47;;
45322;SDS011;31382;50.200;8.674;2023-02-01T17:24:43;2.17;;;0.35;;
45322;SDS011;31382;50.200;8.674;2023-02-01T17:29:49;3.05;;;0.75;;
45322;SDS011;31382;50.200;8.674;2023-02-01T17:34:51;4.20;;;1.25;;
45322;SDS011;31382;50.200;8.674;2023-02-01T17:39:52;4.75;;;0.98;;
45322;SDS011;31382;50.200;8.674;2023-02-01T17:44:59;10.40;;;0.88;;
45322;SDS011;31382;50.200;8.674;2023-02-01T17:50:02;3.00;;;0.80;;
45322;SDS011;31382;50.200;8.674;2023-02-01T17:55:15;4.85;;;1.40;;
45322;SDS011;31382;50.200;8.674;2023-02-01T18:00:19;8.40;;;0.73;;
45322;SDS011;31382;50.200;8.674;2023-02-01T18:05:41;3.17;;;0.85;;
45322;SDS011;31382;50.200;8.674;2023-02-01T18:10:44;4.57;;;0.50;;
45322;SDS011;31382;50.200;8.674;2023-02-01T18:15:49;9.38;;;1.10;;
45322;SDS011;31382;50.200;8.674;2023-02-01T18:20:50;9.57;;;1.88;;
45322;SDS011;31382;50.200;8.674;2023-02-01T18:25:52;5.10;;;0.40;;
45322;SDS011;31382;50.200;8.674;2023-02-01T18:30:53;6.45;;;0.45;;
45322;SDS011;31382;50.200;8.674;2023-02-01T18:35:55;5.00;;;0.50;;
45322;SDS011;31382;50.200;8.674;2023-02-01T18:40:56;0.88;;;0.20;;
45322;SDS011;31382;50.200;8.674;2023-02-01T18:45:58;4.20;;;0.55;;
45322;SDS011;31382;50.200;8.674;2023-02-01T18:50:59;1.70;;;0.55;;
45322;SDS011;31382;50.200;8.674;2023-02-01T18:56:01;4.32;;;0.88;;
45322;SDS011;31382;50.200;8.674;2023-02-01T19:01:08;3.65;;;0.40;;
45322;SDS011;31382;50.200;8.674;2023-02-01T19:06:16;5.10;;;0.70;;
45322;SDS011;31382;50.200;8.674;2023-02-01T19:11:18;3.75;;;0.40;;
45322;SDS011;31382;50.200;8.674;2023-02-01T19:16:19;2.83;;;0.30;;
45322;SDS011;31382;50.200;8.674;2023-02-01T19:21:21;3.72;;;0.43;;
45322;SDS011;31382;50.200;8.674;2023-02-01T19:26:22;7.32;;;0.43;;
45322;SDS011;31382;50.200;8.674;2023-02-01T19:31:24;0.93;;;0.50;;
45322;SDS011;31382;50.200;8.674;2023-02-01T19:36:26;4.72;;;0.52;;
45322;SDS011;31382;50.200;8.674;2023-02-01T19:41:27;6.70;;;0.88;;
45322;SDS011;31382;50.200;8.674;2023-02-01T19:46:28;5.15;;;0.82;;
45322;SDS011;31382;50.200;8.674;2023-02-01T19:51:30;4.15;;;0.98;;
45322;SDS011;31382;50.200;8.674;2023-02-01T19:56:31;3.00;;;0.25;;
45322;SDS011;31382;50.200;8.674;2023-02-01T20:01:33;3.30;;;0.57;;
45322;SDS011;31382;50.200;8.674;2023-02-01T20:06:36;7.78;;;0.77;;
45322;SDS011;31382;50.200;8.674;2023-02-01T20:11:39;3.67;;;0.77;;
45322;SDS011;31382;50.200;8.674;2023-02-01T20:16:41;5.80;;;1.15;;
45322;SDS011;31382;50.200;8.674;2023-02-01T20:21:44;3.55;;;0.82;;
45322;SDS011;31382;50.200;8.674;2023-02-01T20:26:45;4.60;;;0.95;;
45322;SDS011;31382;50.200;8.674;2023-02-01T20:31:49;3.08;;;0.30;;
45322;SDS011;31382;50.200;8.674;2023-02-01T20:36:50;3.60;;;0.60;;
45322;SDS011;31382;50.200;8.674;2023-02-01T20:41:51;1.05;;;0.50;;
45322;SDS011;31382;50.200;8.674;2023-02-01T20:46:53;0.75;;;0.40;;
45322;SDS011;31382;50.200;8.674;2023-02-01T20:51:54;2.65;;;1.05;;
45322;SDS011;31382;50.200;8.674;2023-02-01T20:56:57;1.80;;;0.40;;
45322;SDS011;31382;50.200;8.674;2023-02-01T21:01:59;3.45;;;0.50;;
45322;SDS011;31382;50.200;8.674;2023-02-01T21:07:01;9.27;;;1.05;;
45322;SDS011;31382;50.200;8.674;2023-02-01T21:12:03;6.15;;;0.50;;
45322;SDS011;31382;50.200;8.674;2023-02-01T21:17:05;7.18;;;0.70;;
45322;SDS011;31382;50.200;8.674;2023-02-01T21:22:06;4.15;;;0.75;;
45322;SDS011;31382;50.200;8.674;2023-02-01T21:27:08;2.70;;;0.60;;
45322;SDS011;31382;50.200;8.674;2023-02-01T21:32:10;4.72;;;0.98;;
45322;SDS011;31382;50.200;8.674;2023-02-01T21:37:11;8.88;;;1.17;;
45322;SDS011;31382;50.200;8.674;2023-02-01T21:42:12;5.13;;;0.50;;
45322;SDS011;31382;50.200;8.674;2023-02-01T21:47:14;4.60;;;0.85;;
45322;SDS011;31382;50.200;8.674;2023-02-01T21:52:18;9.32;;;1.33;;
45322;SDS011;31382;50.200;8.674;2023-02-01T21:57:19;8.38;;;1.38;;
45322;SDS011;31382;50.200;8.674;2023-02-01T22:02:21;5.90;;;0.70;;
45322;SDS011;31382;50.200;8.674;2023-02-01T22:07:22;7.18;;;1.45;;
45322;SDS011;31382;50.200;8.674;2023-02-01T22:12:23;4.40;;;0.80;;
45322;SDS011;31382;50.200;8.674;2023-02-01T22:17:25;5.78;;;1.33;;
45322;SDS011;31382;50.200;8.674;2023-02-01T22:22:28;4.78;;;0.75;;
45322;SDS011;31382;50.200;8.674;2023-02-01T22:27:29;6.05;;;1.00;;
45322;SDS011;31382;50.200;8.674;2023-02-01T22:32:52;5.45;;;0.90;;
45322;SDS011;31382;50.200;8.674;2023-02-01T22:37:54;3.67;;;1.13;;
45322;SDS011;31382;50.200;8.674;2023-02-01T22:42:55;5.35;;;0.80;;
45322;SDS011;31382;50.200;8.674;2023-02-01T22:47:56;6.63;;;1.00;;
45322;SDS011;31382;50.200;8.674;2023-02-01T22:52:58;3.88;;;0.40;;
45322;SDS011;31382;50.200;8.674;2023-02-01T22:57:59;4.97;;;0.52;;
45322;SDS011;31382;50.200;8.674;2023-02-01T23:03:01;2.58;;;0.60;;
45322;SDS011;31382;50.200;8.674;2023-02-01T23:08:02;5.30;;;1.08;;
45322;SDS011;31382;50.200;8.674;2023-02-01T23:13:03;6.05;;;0.57;;
45322;SDS011;31382;50.200;8.674;2023-02-01T23:18:05;2.20;;;0.50;;
45322;SDS011;31382;50.200;8.674;2023-02-01T23:23:06;3.65;;;0.63;;
45322;SDS011;31382;50.200;8.674;2023-02-01T23:28:07;2.30;;;0.57;;
45322;SDS011;31382;50.200;8.674;2023-02-01T23:33:09;5.90;;;1.05;;
45322;SDS011;31382;50.200;8.674;2023-02-01T23:38:10;5.50;;;0.60;;
45322;SDS011;31382;50.200;8.674;2023-02-01T23:43:11;4.28;;;0.60;;
45322;SDS011;31382;50.200;8.674;2023-02-01T23:48:31;4.55;;;1.33;;
45322;SDS011;31382;50.200;8.674;2023-02-01T23:53:33;5.88;;;0.82;;
45322;SDS011;31382;50.200;8.674;2023-02-01T23:58:34;3.88;;;0.70;;
